Aviation Digital Data Service (ADDS)

Output produced by METARs form (0554 UTC 30 September 2014)
found at http://www.aviationweather.gov/adds/metars/
 
KATL 300526Z 3006/0112 06004KT 6SM -DZ BR BKN006 
     TEMPO 3009/3012 4SM -DZ BR BKN004 
     FM301400 04004KT P6SM SCT010 
     FM301800 02004KT P6SM FEW040 
     FM302200 03003KT P6SM FEW100 
     FM010400 VRB02KT P6SM FEW250